sensor_id;sensor_type;location;lat;lon;timestamp;pressure;altitude;pressure_sealevel;temperature;humidity
68137;BME280;54939;50.826;9.030;2023-07-31T00:00:24;98319.59;;;23.05;49.26
68137;BME280;54939;50.826;9.030;2023-07-31T00:00:55;98319.59;;;23.05;49.02
68137;BME280;54939;50.826;9.030;2023-07-31T00:01:25;98319.59;;;23.05;49.22
68137;BME280;54939;50.826;9.030;2023-07-31T00:01:55;98311.44;;;23.05;49.36
68137;BME280;54939;50.826;9.030;2023-07-31T00:02:25;98316.88;;;23.05;49.16
68137;BME280;54939;50.826;9.030;2023-07-31T00:02:55;98322.34;;;23.05;49.25
68137;BME280;54939;50.826;9.030;2023-07-31T00:03:25;98316.88;;;23.05;49.22
68137;BME280;54939;50.826;9.030;2023-07-31T00:03:55;98323.16;;;23.06;49.36
68137;BME280;54939;50.826;9.030;2023-07-31T00:04:26;98316.06;;;23.05;49.27
68137;BME280;54939;50.826;9.030;2023-07-31T00:04:56;98317.94;;;23.04;49.28
68137;BME280;54939;50.826;9.030;2023-07-31T00:05:26;98309.78;;;23.04;49.15
68137;BME280;54939;50.826;9.030;2023-07-31T00:05:56;98320.69;;;23.04;49.22
68137;BME280;54939;50.826;9.030;2023-07-31T00:06:26;98312.50;;;23.04;49.02
68137;BME280;54939;50.826;9.030;2023-07-31T00:06:56;98316.88;;;23.05;49.35
68137;BME280;54939;50.826;9.030;2023-07-31T00:07:27;98318.78;;;23.05;49.02
68137;BME280;54939;50.826;9.030;2023-07-31T00:07:57;98318.78;;;23.05;49.34
68137;BME280;54939;50.826;9.030;2023-07-31T00:08:27;98313.00;;;23.01;49.22
68137;BME280;54939;50.826;9.030;2023-07-31T00:08:57;98308.72;;;23.05;49.14
68137;BME280;54939;50.826;9.030;2023-07-31T00:09:27;98311.44;;;23.05;49.11
68137;BME280;54939;50.826;9.030;2023-07-31T00:09:58;98313.34;;;23.05;49.21
68137;BME280;54939;50.826;9.030;2023-07-31T00:10:28;98320.44;;;23.06;49.14
68137;BME280;54939;50.826;9.030;2023-07-31T00:10:58;98315.22;;;23.04;49.15
68137;BME280;54939;50.826;9.030;2023-07-31T00:11:28;98317.72;;;23.06;49.25
68137;BME280;54939;50.826;9.030;2023-07-31T00:11:58;98320.44;;;23.06;49.27
68137;BME280;54939;50.826;9.030;2023-07-31T00:12:28;98316.88;;;23.05;49.09
68137;BME280;54939;50.826;9.030;2023-07-31T00:12:59;98312.50;;;23.04;49.06
68137;BME280;54939;50.826;9.030;2023-07-31T00:13:29;98316.28;;;23.03;49.31
68137;BME280;54939;50.826;9.030;2023-07-31T00:13:59;98315.22;;;23.04;49.29
68137;BME280;54939;50.826;9.030;2023-07-31T00:14:29;98326.94;;;23.05;49.26
68137;BME280;54939;50.826;9.030;2023-07-31T00:14:59;98313.34;;;23.05;49.30
68137;BME280;54939;50.826;9.030;2023-07-31T00:15:30;98316.88;;;23.05;49.04
68137;BME280;54939;50.826;9.030;2023-07-31T00:16:00;98316.88;;;23.05;49.12
68137;BME280;54939;50.826;9.030;2023-07-31T00:16:30;98319.59;;;23.05;49.24
68137;BME280;54939;50.826;9.030;2023-07-31T00:17:00;98320.44;;;23.06;49.36
68137;BME280;54939;50.826;9.030;2023-07-31T00:17:31;98315.00;;;23.06;49.02
68137;BME280;54939;50.826;9.030;2023-07-31T00:18:01;98314.16;;;23.05;49.33
68137;BME280;54939;50.826;9.030;2023-07-31T00:18:31;98318.78;;;23.05;49.20
68137;BME280;54939;50.826;9.030;2023-07-31T00:19:01;98325.06;;;23.05;49.10
68137;BME280;54939;50.826;9.030;2023-07-31T00:19:31;98315.00;;;23.06;49.16
68137;BME280;54939;50.826;9.030;2023-07-31T00:20:02;98319.59;;;23.05;49.22
68137;BME280;54939;50.826;9.030;2023-07-31T00:20:32;98305.41;;;23.03;49.16
68137;BME280;54939;50.826;9.030;2023-07-31T00:21:02;98312.50;;;23.04;49.45
68137;BME280;54939;50.826;9.030;2023-07-31T00:21:32;98317.94;;;23.04;49.32
68137;BME280;54939;50.826;9.030;2023-07-31T00:22:03;98316.88;;;23.05;49.15
68137;BME280;54939;50.826;9.030;2023-07-31T00:22:33;98310.84;;;23.03;49.27
68137;BME280;54939;50.826;9.030;2023-07-31T00:23:03;98312.50;;;23.04;49.09
68137;BME280;54939;50.826;9.030;2023-07-31T00:23:33;98308.72;;;23.05;49.25
68137;BME280;54939;50.826;9.030;2023-07-31T00:24:03;98317.94;;;23.04;49.27
68137;BME280;54939;50.826;9.030;2023-07-31T00:24:34;98313.56;;;23.03;49.12
68137;BME280;54939;50.826;9.030;2023-07-31T00:25:04;98310.63;;;23.05;49.22
68137;BME280;54939;50.826;9.030;2023-07-31T00:25:36;98307.06;;;23.04;49.14
68137;BME280;54939;50.826;9.030;2023-07-31T00:26:06;98313.34;;;23.05;49.17
68137;BME280;54939;50.826;9.030;2023-07-31T00:26:36;98313.34;;;23.05;49.15
68137;BME280;54939;50.826;9.030;2023-07-31T00:27:06;98311.69;;;23.04;49.03
68137;BME280;54939;50.826;9.030;2023-07-31T00:27:37;98308.13;;;23.03;49.08
68137;BME280;54939;50.826;9.030;2023-07-31T00:28:07;98311.69;;;23.04;49.01
68137;BME280;54939;50.826;9.030;2023-07-31T00:28:37;98306.22;;;23.04;49.22
68137;BME280;54939;50.826;9.030;2023-07-31T00:29:07;98312.50;;;23.04;49.11
68137;BME280;54939;50.826;9.030;2023-07-31T00:29:37;98304.34;;;23.04;49.20
68137;BME280;54939;50.826;9.030;2023-07-31T00:30:07;98303.28;;;23.05;49.28
68137;BME280;54939;50.826;9.030;2023-07-31T00:30:38;98305.16;;;23.05;49.01
68137;BME280;54939;50.826;9.030;2023-07-31T00:31:08;98301.63;;;23.04;49.22
68137;BME280;54939;50.826;9.030;2023-07-31T00:31:38;98306.22;;;23.04;49.11
68137;BME280;54939;50.826;9.030;2023-07-31T00:32:08;98298.06;;;23.04;48.92
68137;BME280;54939;50.826;9.030;2023-07-31T00:32:38;98309.78;;;23.04;49.08
68137;BME280;54939;50.826;9.030;2023-07-31T00:33:09;98305.41;;;23.03;49.13
68137;BME280;54939;50.826;9.030;2023-07-31T00:33:39;98306.22;;;23.04;49.20
68137;BME280;54939;50.826;9.030;2023-07-31T00:34:09;98304.56;;;23.03;49.15
68137;BME280;54939;50.826;9.030;2023-07-31T00:34:39;98305.41;;;23.03;49.04
68137;BME280;54939;50.826;9.030;2023-07-31T00:35:09;98303.78;;;23.02;49.26
68137;BME280;54939;50.826;9.030;2023-07-31T00:35:39;98302.69;;;23.03;49.16
68137;BME280;54939;50.826;9.030;2023-07-31T00:36:10;98308.13;;;23.03;49.07
68137;BME280;54939;50.826;9.030;2023-07-31T00:36:40;98308.13;;;23.03;49.21
68137;BME280;54939;50.826;9.030;2023-07-31T00:37:10;98308.97;;;23.04;49.19
68137;BME280;54939;50.826;9.030;2023-07-31T00:37:40;98307.88;;;23.05;49.12
68137;BME280;54939;50.826;9.030;2023-07-31T00:38:10;98309.78;;;23.04;48.88
68137;BME280;54939;50.826;9.030;2023-07-31T00:38:40;98311.69;;;23.04;49.05
68137;BME280;54939;50.826;9.030;2023-07-31T00:39:10;98309.78;;;23.04;49.00
68137;BME280;54939;50.826;9.030;2023-07-31T00:39:41;98302.69;;;23.03;49.14
68137;BME280;54939;50.826;9.030;2023-07-31T00:40:11;98305.41;;;23.03;49.18
68137;BME280;54939;50.826;9.030;2023-07-31T00:40:43;98307.06;;;23.04;48.92
68137;BME280;54939;50.826;9.030;2023-07-31T00:41:14;98308.97;;;23.04;49.14
68137;BME280;54939;50.826;9.030;2023-07-31T00:41:44;98300.78;;;23.04;49.12
68137;BME280;54939;50.826;9.030;2023-07-31T00:42:14;98305.41;;;23.03;49.19
68137;BME280;54939;50.826;9.030;2023-07-31T00:42:44;98306.22;;;23.04;48.93
68137;BME280;54939;50.826;9.030;2023-07-31T00:43:14;98298.06;;;23.04;49.07
68137;BME280;54939;50.826;9.030;2023-07-31T00:43:44;98304.56;;;23.03;49.10
68137;BME280;54939;50.826;9.030;2023-07-31T00:44:15;98292.31;;;23.00;49.09
68137;BME280;54939;50.826;9.030;2023-07-31T00:44:45;98297.25;;;23.03;48.94
68137;BME280;54939;50.826;9.030;2023-07-31T00:45:15;98297.75;;;23.00;49.06
68137;BME280;54939;50.826;9.030;2023-07-31T00:45:45;98303.50;;;23.04;49.03
68137;BME280;54939;50.826;9.030;2023-07-31T00:46:15;98301.06;;;23.02;49.21
68137;BME280;54939;50.826;9.030;2023-07-31T00:46:45;98296.41;;;23.03;49.18
68137;BME280;54939;50.826;9.030;2023-07-31T00:47:16;98303.50;;;23.04;49.06
68137;BME280;54939;50.826;9.030;2023-07-31T00:47:46;98295.63;;;23.02;49.15
68137;BME280;54939;50.826;9.030;2023-07-31T00:48:16;98299.97;;;23.03;48.92
68137;BME280;54939;50.826;9.030;2023-07-31T00:48:46;98304.56;;;23.03;48.90
68137;BME280;54939;50.826;9.030;2023-07-31T00:49:16;98295.63;;;23.02;48.99
68137;BME280;54939;50.826;9.030;2023-07-31T00:49:47;98296.41;;;23.03;48.94
68137;BME280;54939;50.826;9.030;2023-07-31T00:50:17;98296.69;;;23.01;49.06
68137;BME280;54939;50.826;9.030;2023-07-31T00:50:48;98302.94;;;23.02;49.05
68137;BME280;54939;50.826;9.030;2023-07-31T00:51:18;98298.34;;;23.02;49.22
68137;BME280;54939;50.826;9.030;2023-07-31T00:51:48;98301.06;;;23.02;49.03
68137;BME280;54939;50.826;9.030;2023-07-31T00:52:18;98296.41;;;23.03;49.08
68137;BME280;54939;50.826;9.030;2023-07-31T00:52:49;98295.63;;;23.02;49.25
68137;BME280;54939;50.826;9.030;2023-07-31T00:53:19;98295.63;;;23.02;48.86
68137;BME280;54939;50.826;9.030;2023-07-31T00:53:49;98290.16;;;23.02;49.21
68137;BME280;54939;50.826;9.030;2023-07-31T00:54:19;98292.06;;;23.02;49.19
68137;BME280;54939;50.826;9.030;2023-07-31T00:54:49;98301.84;;;23.03;48.88
68137;BME280;54939;50.826;9.030;2023-07-31T00:55:20;98292.31;;;23.00;49.08
68137;BME280;54939;50.826;9.030;2023-07-31T00:55:51;98291.22;;;23.01;48.90
68137;BME280;54939;50.826;9.030;2023-07-31T00:56:22;98291.22;;;23.01;49.10
68137;BME280;54939;50.826;9.030;2023-07-31T00:56:53;98284.97;;;23.01;48.89
68137;BME280;54939;50.826;9.030;2023-07-31T00:57:24;98289.56;;;23.00;49.06
68137;BME280;54939;50.826;9.030;2023-07-31T00:57:54;98285.78;;;23.01;48.95
68137;BME280;54939;50.826;9.030;2023-07-31T00:58:25;98279.50;;;23.01;49.15
68137;BME280;54939;50.826;9.030;2023-07-31T00:58:55;98284.13;;;23.00;49.10
68137;BME280;54939;50.826;9.030;2023-07-31T00:59:26;98288.50;;;23.01;48.94
68137;BME280;54939;50.826;9.030;2023-07-31T00:59:56;98284.13;;;23.00;48.76
68137;BME280;54939;50.826;9.030;2023-07-31T01:00:26;98284.97;;;23.01;49.02
68137;BME280;54939;50.826;9.030;2023-07-31T01:00:56;98284.13;;;23.00;49.04
68137;BME280;54939;50.826;9.030;2023-07-31T01:01:27;98277.84;;;23.00;48.86
68137;BME280;54939;50.826;9.030;2023-07-31T01:01:57;98284.13;;;23.00;49.03
68137;BME280;54939;50.826;9.030;2023-07-31T01:02:27;98279.50;;;23.01;49.10
68137;BME280;54939;50.826;9.030;2023-07-31T01:02:57;98281.41;;;23.00;48.99
68137;BME280;54939;50.826;9.030;2023-07-31T01:03:28;98275.13;;;23.00;48.88
68137;BME280;54939;50.826;9.030;2023-07-31T01:03:58;98277.84;;;23.00;49.10
68137;BME280;54939;50.826;9.030;2023-07-31T01:04:29;98275.97;;;23.00;49.25
68137;BME280;54939;50.826;9.030;2023-07-31T01:04:59;98275.97;;;23.00;48.83
68137;BME280;54939;50.826;9.030;2023-07-31T01:06:14;98268.63;;;23.01;49.03
68137;BME280;54939;50.826;9.030;2023-07-31T01:07:01;98273.25;;;23.00;49.23
68137;BME280;54939;50.826;9.030;2023-07-31T01:08:19;98271.59;;;22.99;49.19
68137;BME280;54939;50.826;9.030;2023-07-31T01:10:22;98273.47;;;22.99;48.76
68137;BME280;54939;50.826;9.030;2023-07-31T01:10:58;98265.31;;;22.99;48.93
68137;BME280;54939;50.826;9.030;2023-07-31T01:11:31;98260.34;;;22.96;49.08
68137;BME280;54939;50.826;9.030;2023-07-31T01:12:03;98264.47;;;22.98;48.79
68137;BME280;54939;50.826;9.030;2023-07-31T01:12:33;98266.13;;;22.99;48.90
68137;BME280;54939;50.826;9.030;2023-07-31T01:13:04;98260.69;;;22.99;49.04
68137;BME280;54939;50.826;9.030;2023-07-31T01:13:35;98266.13;;;22.99;48.94
68137;BME280;54939;50.826;9.030;2023-07-31T01:14:05;98266.97;;;23.00;49.05
68137;BME280;54939;50.826;9.030;2023-07-31T01:14:35;98267.78;;;23.00;49.25
68137;BME280;54939;50.826;9.030;2023-07-31T01:15:09;98267.78;;;23.00;48.76
68137;BME280;54939;50.826;9.030;2023-07-31T01:15:42;98275.13;;;23.00;48.84
68137;BME280;54939;50.826;9.030;2023-07-31T01:16:12;98271.59;;;22.99;48.88
68137;BME280;54939;50.826;9.030;2023-07-31T01:16:42;98278.09;;;22.98;49.01
68137;BME280;54939;50.826;9.030;2023-07-31T01:17:12;98272.41;;;23.00;48.99
68137;BME280;54939;50.826;9.030;2023-07-31T01:17:43;98270.53;;;23.00;49.30
68137;BME280;54939;50.826;9.030;2023-07-31T01:18:13;98278.69;;;23.00;48.87
68137;BME280;54939;50.826;9.030;2023-07-31T01:18:43;98271.59;;;22.99;48.83
68137;BME280;54939;50.826;9.030;2023-07-31T01:19:14;98266.13;;;22.99;48.83
68137;BME280;54939;50.826;9.030;2023-07-31T01:19:44;98266.13;;;22.99;48.89
68137;BME280;54939;50.826;9.030;2023-07-31T01:20:21;98275.13;;;23.00;48.92
68137;BME280;54939;50.826;9.030;2023-07-31T01:20:54;98266.97;;;23.00;49.00
68137;BME280;54939;50.826;9.030;2023-07-31T01:21:30;98273.25;;;23.00;49.20
68137;BME280;54939;50.826;9.030;2023-07-31T01:22:30;98275.38;;;22.98;48.94
68137;BME280;54939;50.826;9.030;2023-07-31T01:24:21;98262.59;;;22.99;48.91
68137;BME280;54939;50.826;9.030;2023-07-31T01:26:49;98265.31;;;22.99;48.88
68137;BME280;54939;50.826;9.030;2023-07-31T01:27:21;98261.75;;;22.98;48.82
68137;BME280;54939;50.826;9.030;2023-07-31T01:27:58;98254.44;;;22.99;49.01
68137;BME280;54939;50.826;9.030;2023-07-31T01:29:41;98252.78;;;22.98;49.04
68137;BME280;54939;50.826;9.030;2023-07-31T01:30:16;98248.16;;;22.98;48.75
68137;BME280;54939;50.826;9.030;2023-07-31T01:30:47;98249.81;;;22.99;49.07
68137;BME280;54939;50.826;9.030;2023-07-31T01:31:22;98254.44;;;22.99;49.05
68137;BME280;54939;50.826;9.030;2023-07-31T01:31:53;98250.88;;;22.98;48.87
68137;BME280;54939;50.826;9.030;2023-07-31T01:32:25;98256.31;;;22.98;49.18
68137;BME280;54939;50.826;9.030;2023-07-31T01:32:58;98258.81;;;23.00;48.90
68137;BME280;54939;50.826;9.030;2023-07-31T01:33:28;98252.53;;;22.99;49.28
68137;BME280;54939;50.826;9.030;2023-07-31T01:34:00;98260.69;;;22.99;49.00
68137;BME280;54939;50.826;9.030;2023-07-31T01:34:30;98251.69;;;22.99;49.04
68137;BME280;54939;50.826;9.030;2023-07-31T01:35:01;98255.25;;;22.99;48.94
68137;BME280;54939;50.826;9.030;2023-07-31T01:35:31;98251.69;;;22.99;48.86
68137;BME280;54939;50.826;9.030;2023-07-31T01:36:01;98248.97;;;22.99;48.85
68137;BME280;54939;50.826;9.030;2023-07-31T01:36:32;98257.97;;;22.99;48.83
68137;BME280;54939;50.826;9.030;2023-07-31T01:37:02;98250.63;;;23.00;49.21
68137;BME280;54939;50.826;9.030;2023-07-31T01:37:32;98256.91;;;23.00;48.99
68137;BME280;54939;50.826;9.030;2023-07-31T01:38:03;98256.91;;;23.00;49.17
68137;BME280;54939;50.826;9.030;2023-07-31T01:38:34;98249.81;;;22.99;49.02
68137;BME280;54939;50.826;9.030;2023-07-31T01:39:04;98252.53;;;22.99;49.21
68137;BME280;54939;50.826;9.030;2023-07-31T01:39:34;98252.53;;;22.99;49.15
68137;BME280;54939;50.826;9.030;2023-07-31T01:40:05;98242.72;;;22.98;48.85
68137;BME280;54939;50.826;9.030;2023-07-31T01:40:35;98248.16;;;22.98;48.74
68137;BME280;54939;50.826;9.030;2023-07-31T01:41:05;98248.16;;;22.98;49.17
68137;BME280;54939;50.826;9.030;2023-07-31T01:41:35;98248.97;;;22.99;48.94
68137;BME280;54939;50.826;9.030;2023-07-31T01:42:05;98255.25;;;22.99;48.99
68137;BME280;54939;50.826;9.030;2023-07-31T01:42:37;98249.81;;;22.99;49.02
68137;BME280;54939;50.826;9.030;2023-07-31T01:43:07;98245.44;;;22.98;49.08
68137;BME280;54939;50.826;9.030;2023-07-31T01:43:37;98247.09;;;22.99;48.81
68137;BME280;54939;50.826;9.030;2023-07-31T01:44:07;98252.53;;;22.99;48.83
68137;BME280;54939;50.826;9.030;2023-07-31T01:44:38;98250.88;;;22.98;49.08
68137;BME280;54939;50.826;9.030;2023-07-31T01:45:08;98254.44;;;22.99;49.11
68137;BME280;54939;50.826;9.030;2023-07-31T01:45:38;98250.28;;;22.96;49.06
68137;BME280;54939;50.826;9.030;2023-07-31T01:46:08;98254.44;;;22.99;49.00
68137;BME280;54939;50.826;9.030;2023-07-31T01:46:39;98252.78;;;22.98;48.77
68137;BME280;54939;50.826;9.030;2023-07-31T01:47:09;98255.50;;;22.98;49.03
68137;BME280;54939;50.826;9.030;2023-07-31T01:47:39;98251.69;;;22.99;48.80
68137;BME280;54939;50.826;9.030;2023-07-31T01:48:09;98254.44;;;22.99;49.03
68137;BME280;54939;50.826;9.030;2023-07-31T01:48:40;98251.69;;;22.99;49.07
68137;BME280;54939;50.826;9.030;2023-07-31T01:49:10;98257.16;;;22.99;48.75
68137;BME280;54939;50.826;9.030;2023-07-31T01:49:40;98253.59;;;22.98;48.83
68137;BME280;54939;50.826;9.030;2023-07-31T01:50:10;98259.88;;;22.99;48.95
68137;BME280;54939;50.826;9.030;2023-07-31T01:50:40;98250.88;;;22.98;48.84
68137;BME280;54939;50.826;9.030;2023-07-31T01:51:10;98256.31;;;22.98;48.85
68137;BME280;54939;50.826;9.030;2023-07-31T01:51:41;98245.44;;;22.98;48.93
68137;BME280;54939;50.826;9.030;2023-07-31T01:52:11;98254.44;;;22.99;49.04
68137;BME280;54939;50.826;9.030;2023-07-31T01:52:41;98254.44;;;22.99;48.96
68137;BME280;54939;50.826;9.030;2023-07-31T01:53:11;98254.44;;;22.99;49.14
68137;BME280;54939;50.826;9.030;2023-07-31T01:53:43;98243.78;;;22.97;49.08
68137;BME280;54939;50.826;9.030;2023-07-31T01:54:13;98254.44;;;22.99;48.99
68137;BME280;54939;50.826;9.030;2023-07-31T01:54:43;98244.59;;;22.98;48.86
68137;BME280;54939;50.826;9.030;2023-07-31T01:55:13;98247.31;;;22.98;48.95
68137;BME280;54939;50.826;9.030;2023-07-31T01:55:43;98254.66;;;22.97;48.95
68137;BME280;54939;50.826;9.030;2023-07-31T01:56:13;98257.38;;;22.97;49.08
68137;BME280;54939;50.826;9.030;2023-07-31T01:56:44;98259.03;;;22.98;48.88
68137;BME280;54939;50.826;9.030;2023-07-31T01:57:14;98251.94;;;22.97;48.85
68137;BME280;54939;50.826;9.030;2023-07-31T01:57:44;98257.38;;;22.97;49.04
68137;BME280;54939;50.826;9.030;2023-07-31T01:58:15;98258.22;;;22.98;49.06
68137;BME280;54939;50.826;9.030;2023-07-31T01:58:45;98252.78;;;22.98;49.13
68137;BME280;54939;50.826;9.030;2023-07-31T01:59:15;98253.84;;;22.97;49.04
68137;BME280;54939;50.826;9.030;2023-07-31T01:59:45;98253.59;;;22.98;49.12
68137;BME280;54939;50.826;9.030;2023-07-31T02:00:15;98256.31;;;22.98;49.23
68137;BME280;54939;50.826;9.030;2023-07-31T02:00:45;98251.94;;;22.97;48.83
68137;BME280;54939;50.826;9.030;2023-07-31T02:01:16;98249.22;;;22.97;49.07
68137;BME280;54939;50.826;9.030;2023-07-31T02:01:46;98256.56;;;22.97;48.88
68137;BME280;54939;50.826;9.030;2023-07-31T02:02:16;98255.50;;;22.98;48.75
68137;BME280;54939;50.826;9.030;2023-07-31T02:02:46;98251.94;;;22.97;49.03
68137;BME280;54939;50.826;9.030;2023-07-31T02:03:16;98255.72;;;22.96;48.88
68137;BME280;54939;50.826;9.030;2023-07-31T02:03:47;98251.13;;;22.97;48.97
68137;BME280;54939;50.826;9.030;2023-07-31T02:04:17;98255.72;;;22.96;49.14
68137;BME280;54939;50.826;9.030;2023-07-31T02:04:47;98254.66;;;22.97;48.98
68137;BME280;54939;50.826;9.030;2023-07-31T02:05:17;98251.94;;;22.97;48.84
68137;BME280;54939;50.826;9.030;2023-07-31T02:05:48;98249.22;;;22.97;48.80
68137;BME280;54939;50.826;9.030;2023-07-31T02:06:18;98254.66;;;22.97;49.00
68137;BME280;54939;50.826;9.030;2023-07-31T02:06:48;98255.50;;;22.98;48.99
68137;BME280;54939;50.826;9.030;2023-07-31T02:07:19;98261.75;;;22.98;49.03
68137;BME280;54939;50.826;9.030;2023-07-31T02:07:49;98257.16;;;22.99;49.01
68137;BME280;54939;50.826;9.030;2023-07-31T02:08:19;98250.03;;;22.98;49.00
68137;BME280;54939;50.826;9.030;2023-07-31T02:08:49;98258.22;;;22.98;48.82
68137;BME280;54939;50.826;9.030;2023-07-31T02:09:20;98254.66;;;22.97;48.94
68137;BME280;54939;50.826;9.030;2023-07-31T02:09:50;98255.72;;;22.96;49.00
68137;BME280;54939;50.826;9.030;2023-07-31T02:10:20;98251.94;;;22.97;49.12
68137;BME280;54939;50.826;9.030;2023-07-31T02:10:51;98253.84;;;22.97;49.02
68137;BME280;54939;50.826;9.030;2023-07-31T02:11:21;98250.28;;;22.96;49.04
68137;BME280;54939;50.826;9.030;2023-07-31T02:11:51;98255.72;;;22.96;49.08
68137;BME280;54939;50.826;9.030;2023-07-31T02:12:21;98251.13;;;22.97;48.83
68137;BME280;54939;50.826;9.030;2023-07-31T02:12:51;98253.00;;;22.96;48.91
68137;BME280;54939;50.826;9.030;2023-07-31T02:13:22;98253.00;;;22.96;49.07
68137;BME280;54939;50.826;9.030;2023-07-31T02:13:52;98250.28;;;22.96;49.10
68137;BME280;54939;50.826;9.030;2023-07-31T02:14:22;98245.09;;;22.95;49.10
68137;BME280;54939;50.826;9.030;2023-07-31T02:14:52;98260.34;;;22.96;49.26
68137;BME280;54939;50.826;9.030;2023-07-31T02:15:22;98249.44;;;22.96;48.99
68137;BME280;54939;50.826;9.030;2023-07-31T02:15:52;98248.66;;;22.95;49.03
68137;BME280;54939;50.826;9.030;2023-07-31T02:16:23;98250.28;;;22.96;49.31
68137;BME280;54939;50.826;9.030;2023-07-31T02:16:53;98234.47;;;22.93;49.16
68137;BME280;54939;50.826;9.030;2023-07-31T02:17:23;98246.16;;;22.94;49.22
68137;BME280;54939;50.826;9.030;2023-07-31T02:17:54;98245.94;;;22.95;49.11
68137;BME280;54939;50.826;9.030;2023-07-31T02:18:24;98240.50;;;22.95;49.07
68137;BME280;54939;50.826;9.030;2023-07-31T02:18:54;98235.84;;;22.96;49.17
68137;BME280;54939;50.826;9.030;2023-07-31T02:19:24;98229.59;;;22.95;49.11
68137;BME280;54939;50.826;9.030;2023-07-31T02:19:54;98241.28;;;22.96;49.06
68137;BME280;54939;50.826;9.030;2023-07-31T02:20:25;98237.78;;;22.95;49.23
68137;BME280;54939;50.826;9.030;2023-07-31T02:20:55;98239.41;;;22.96;49.17
68137;BME280;54939;50.826;9.030;2023-07-31T02:21:26;98240.50;;;22.95;49.13
68137;BME280;54939;50.826;9.030;2023-07-31T02:21:56;98242.94;;;22.97;49.11
68137;BME280;54939;50.826;9.030;2023-07-31T02:22:26;98241.28;;;22.96;49.22
68137;BME280;54939;50.826;9.030;2023-07-31T02:22:56;98233.94;;;22.96;49.08
68137;BME280;54939;50.826;9.030;2023-07-31T02:23:26;98233.13;;;22.96;49.03
68137;BME280;54939;50.826;9.030;2023-07-31T02:23:57;98238.56;;;22.96;48.84
68137;BME280;54939;50.826;9.030;2023-07-31T02:24:27;98235.84;;;22.96;49.00
68137;BME280;54939;50.826;9.030;2023-07-31T02:24:57;98241.56;;;22.94;49.08
68137;BME280;54939;50.826;9.030;2023-07-31T02:25:27;98231.50;;;22.95;49.11
68137;BME280;54939;50.826;9.030;2023-07-31T02:25:57;98237.78;;;22.95;48.92
68137;BME280;54939;50.826;9.030;2023-07-31T02:26:27;98236.94;;;22.95;49.12
68137;BME280;54939;50.826;9.030;2023-07-31T02:26:58;98226.88;;;22.95;49.05
68137;BME280;54939;50.826;9.030;2023-07-31T02:27:28;98227.69;;;22.96;49.13
68137;BME280;54939;50.826;9.030;2023-07-31T02:27:58;98226.88;;;22.95;49.29
68137;BME280;54939;50.826;9.030;2023-07-31T02:28:28;98240.50;;;22.95;49.16
68137;BME280;54939;50.826;9.030;2023-07-31T02:28:59;98230.66;;;22.94;48.96
68137;BME280;54939;50.826;9.030;2023-07-31T02:29:29;98230.41;;;22.96;49.22
68137;BME280;54939;50.826;9.030;2023-07-31T02:29:59;98229.00;;;22.93;48.89
68137;BME280;54939;50.826;9.030;2023-07-31T02:30:29;98227.94;;;22.94;49.30
68137;BME280;54939;50.826;9.030;2023-07-31T02:30:59;98228.78;;;22.95;49.10
68137;BME280;54939;50.826;9.030;2023-07-31T02:31:29;98229.84;;;22.94;49.35
68137;BME280;54939;50.826;9.030;2023-07-31T02:32:00;98223.34;;;22.95;49.14
68137;BME280;54939;50.826;9.030;2023-07-31T02:32:30;98224.16;;;22.95;49.21
68137;BME280;54939;50.826;9.030;2023-07-31T02:33:00;98228.78;;;22.95;49.17
68137;BME280;54939;50.826;9.030;2023-07-31T02:33:30;98230.66;;;22.94;49.15
68137;BME280;54939;50.826;9.030;2023-07-31T02:34:00;98226.88;;;22.95;49.10
68137;BME280;54939;50.826;9.030;2023-07-31T02:34:31;98224.16;;;22.95;49.22
68137;BME280;54939;50.826;9.030;2023-07-31T02:35:01;98228.78;;;22.95;49.20
68137;BME280;54939;50.826;9.030;2023-07-31T02:35:31;98223.34;;;22.95;49.08
68137;BME280;54939;50.826;9.030;2023-07-31T02:36:01;98227.94;;;22.94;48.98
68137;BME280;54939;50.826;9.030;2023-07-31T02:36:31;98228.78;;;22.95;49.00
68137;BME280;54939;50.826;9.030;2023-07-31T02:37:01;98229.59;;;22.95;49.10
68137;BME280;54939;50.826;9.030;2023-07-31T02:37:32;98227.94;;;22.94;49.01
68137;BME280;54939;50.826;9.030;2023-07-31T02:38:02;98231.50;;;22.95;49.11
68137;BME280;54939;50.826;9.030;2023-07-31T02:38:32;98227.13;;;22.94;49.38
68137;BME280;54939;50.826;9.030;2023-07-31T02:39:02;98227.94;;;22.94;49.16
68137;BME280;54939;50.826;9.030;2023-07-31T02:39:32;98226.88;;;22.95;49.12
68137;BME280;54939;50.826;9.030;2023-07-31T02:40:03;98224.41;;;22.94;49.11
68137;BME280;54939;50.826;9.030;2023-07-31T02:40:33;98227.13;;;22.94;49.17
68137;BME280;54939;50.826;9.030;2023-07-31T02:41:03;98227.94;;;22.94;49.20
68137;BME280;54939;50.826;9.030;2023-07-31T02:41:33;98220.84;;;22.93;49.24
68137;BME280;54939;50.826;9.030;2023-07-31T02:42:03;98225.47;;;22.93;49.20
68137;BME280;54939;50.826;9.030;2023-07-31T02:42:34;98227.13;;;22.94;49.25
68137;BME280;54939;50.826;9.030;2023-07-31T02:43:04;98227.13;;;22.94;49.34
68137;BME280;54939;50.826;9.030;2023-07-31T02:43:34;98227.13;;;22.94;49.09
68137;BME280;54939;50.826;9.030;2023-07-31T02:44:04;98229.84;;;22.94;48.90
68137;BME280;54939;50.826;9.030;2023-07-31T02:44:34;98227.13;;;22.94;49.07
68137;BME280;54939;50.826;9.030;2023-07-31T02:45:05;98221.69;;;22.94;48.79
68137;BME280;54939;50.826;9.030;2023-07-31T02:45:35;98223.56;;;22.93;49.15
68137;BME280;54939;50.826;9.030;2023-07-31T02:46:05;98223.56;;;22.93;49.10
68137;BME280;54939;50.826;9.030;2023-07-31T02:46:36;98225.22;;;22.94;48.94
68137;BME280;54939;50.826;9.030;2023-07-31T02:47:06;98225.47;;;22.93;49.33
68137;BME280;54939;50.826;9.030;2023-07-31T02:47:36;98217.88;;;22.95;49.16
68137;BME280;54939;50.826;9.030;2023-07-31T02:48:06;98224.41;;;22.94;49.00
68137;BME280;54939;50.826;9.030;2023-07-31T02:48:36;98222.75;;;22.93;48.88
68137;BME280;54939;50.826;9.030;2023-07-31T02:49:07;98218.13;;;22.93;49.10
68137;BME280;54939;50.826;9.030;2023-07-31T02:49:37;98228.19;;;22.93;49.12